createdAt,value
2018-10-19T16:24:01.677Z,3.90
2018-10-19T16:26:40.665Z,3.57
2018-10-19T16:34:56.576Z,2.50
2018-10-19T16:37:31.070Z,3.30
2018-10-19T16:40:06.001Z,3.13
2018-10-19T16:42:40.653Z,4.43
2018-10-19T16:45:15.335Z,4.53
2018-10-19T16:47:49.869Z,3.83
2018-10-19T16:50:24.550Z,3.57
2018-10-19T16:52:59.178Z,3.60
2018-10-19T16:55:48.831Z,3.97
2018-10-19T16:58:23.573Z,3.20
2018-10-19T17:00:58.137Z,4.23
2018-10-19T17:03:32.903Z,3.47
2018-10-19T17:06:07.547Z,3.63
2018-10-19T17:08:43.262Z,3.50
2018-10-19T17:11:17.692Z,3.70
2018-10-19T17:13:52.298Z,3.40
2018-10-19T17:16:26.819Z,4.33
2018-10-19T17:19:05.559Z,4.50
2018-10-19T17:21:40.173Z,4.57
2018-10-19T17:24:15.833Z,5.40
2018-10-19T17:26:50.995Z,5.20
2018-10-19T17:29:25.650Z,5.77
2018-10-19T17:32:00.094Z,14.17
2018-10-19T17:34:34.784Z,6.57
2018-10-19T17:37:09.367Z,6.87
2018-10-19T17:39:44.020Z,6.30
2018-10-19T17:42:18.648Z,7.20
2018-10-19T17:44:53.308Z,5.17
2018-10-19T17:47:27.862Z,5.37
2018-10-19T17:50:02.704Z,6.50
2018-10-19T17:52:37.197Z,6.93
2018-10-19T17:55:12.505Z,4.90
2018-10-19T17:57:47.065Z,5.60
2018-10-19T18:00:21.599Z,4.13
2018-10-19T18:02:56.268Z,3.60
2018-10-19T18:05:30.832Z,3.50
2018-10-19T18:08:05.561Z,3.50
2018-10-19T18:10:40.089Z,4.20
2018-10-19T18:13:14.865Z,4.10
2018-10-19T18:15:49.576Z,5.33
2018-10-19T18:18:24.182Z,5.10
2018-10-19T18:20:58.709Z,6.93
2018-10-19T18:23:33.373Z,4.67
2018-10-19T18:26:07.964Z,5.33
2018-10-19T18:28:42.468Z,5.00
2018-10-19T18:31:16.971Z,4.83
2018-10-19T18:33:51.579Z,4.67
2018-10-19T18:36:26.218Z,4.80
2018-10-19T18:39:00.924Z,6.50
2018-10-19T18:41:35.691Z,6.90
2018-10-19T18:44:10.195Z,5.17
2018-10-19T18:46:44.716Z,6.60
2018-10-19T18:49:19.319Z,6.00
2018-10-19T18:51:53.922Z,5.37
2018-10-19T18:54:28.492Z,5.87
2018-10-19T18:57:03.174Z,5.67
2018-10-19T18:59:37.670Z,5.10
2018-10-19T19:02:12.487Z,5.97
2018-10-19T19:04:47.032Z,5.60
2018-10-19T19:07:21.486Z,6.43
2018-10-19T19:10:15.925Z,5.90
2018-10-19T19:12:54.789Z,4.40
2018-10-19T19:15:29.473Z,4.37
2018-10-19T19:18:04.123Z,4.23
2018-10-19T19:20:38.745Z,4.30
2018-10-19T19:23:13.363Z,5.70
2018-10-19T19:25:53.517Z,5.60
2018-10-19T19:28:28.284Z,5.57
2018-10-19T19:31:02.990Z,6.00
2018-10-19T19:33:43.064Z,4.13
2018-10-19T19:36:17.760Z,5.57
2018-10-19T19:38:52.597Z,5.90
2018-10-19T19:41:32.391Z,5.10
2018-10-19T19:44:07.210Z,5.10
2018-10-19T19:46:41.672Z,4.53
2018-10-19T19:49:21.838Z,4.87
2018-10-19T19:51:56.485Z,5.00
2018-10-19T19:54:31.033Z,5.80
2018-10-19T19:57:27.908Z,5.30
2018-10-19T20:00:02.535Z,6.60
2018-10-19T20:02:37.265Z,8.03
2018-10-19T20:05:11.983Z,9.77
2018-10-19T20:07:48.627Z,7.27
2018-10-19T20:10:23.049Z,7.30
2018-10-19T20:12:57.877Z,7.37
2018-10-19T20:15:32.477Z,6.97
2018-10-19T20:18:07.080Z,5.90
2018-10-19T20:20:41.710Z,5.03
2018-10-19T20:23:16.337Z,5.10
2018-10-19T20:25:50.854Z,5.83
2018-10-19T20:28:25.763Z,5.13
2018-10-19T20:31:00.407Z,5.20
2018-10-19T20:33:34.971Z,4.30
2018-10-19T20:36:09.544Z,4.57
2018-10-19T20:38:44.201Z,4.53
2018-10-19T20:41:18.799Z,5.37
2018-10-19T20:43:53.321Z,4.80
2018-10-19T20:46:27.897Z,5.63
2018-10-19T20:49:02.600Z,5.10
2018-10-19T20:51:37.217Z,5.57
2018-10-19T20:54:11.730Z,5.90
2018-10-19T20:56:46.261Z,5.67
2018-10-19T20:59:20.754Z,5.07
2018-10-19T21:01:55.525Z,5.80
2018-10-19T21:04:30.067Z,5.50
2018-10-19T21:07:04.670Z,5.43
2018-10-19T21:09:39.302Z,9.23
2018-10-19T21:12:13.904Z,5.97
2018-10-19T21:14:48.832Z,8.03
2018-10-19T21:17:23.400Z,5.17
2018-10-19T21:19:57.872Z,6.20
2018-10-19T21:22:32.404Z,6.30
2018-10-19T21:25:07.777Z,5.70
2018-10-19T21:27:42.392Z,5.90
2018-10-19T21:30:16.985Z,6.70
2018-10-19T21:32:51.589Z,6.27
2018-10-19T21:35:26.181Z,5.83
2018-10-19T21:38:00.811Z,6.73
2018-10-19T21:40:35.302Z,6.37
2018-10-19T21:43:10.014Z,6.40
2018-10-19T21:45:44.654Z,8.90
2018-10-19T21:48:19.293Z,8.37
2018-10-19T21:50:53.794Z,9.10
2018-10-19T21:53:28.343Z,8.50
2018-10-19T21:56:02.929Z,8.30
2018-10-19T21:58:37.457Z,8.53
2018-10-19T22:01:11.989Z,9.67
2018-10-19T22:03:46.546Z,8.33
2018-10-19T22:06:21.246Z,9.63
2018-10-19T22:08:55.810Z,8.80
2018-10-19T22:11:30.526Z,8.23
2018-10-19T22:14:06.236Z,8.67
2018-10-19T22:16:41.343Z,9.33
2018-10-19T22:19:16.004Z,8.40
2018-10-19T22:21:50.517Z,9.30
2018-10-19T22:24:25.223Z,8.77
2018-10-19T22:26:59.869Z,10.00
2018-10-19T22:29:34.610Z,9.60
2018-10-19T22:32:09.149Z,8.43
2018-10-19T22:34:43.672Z,9.30
2018-10-19T22:37:18.296Z,8.90
2018-10-19T22:39:52.893Z,9.73
2018-10-19T22:42:27.590Z,10.23
2018-10-19T22:45:02.182Z,9.57
2018-10-19T22:47:36.952Z,9.00
2018-10-19T22:50:11.499Z,9.80
2018-10-19T22:52:45.964Z,8.80
2018-10-19T22:55:20.559Z,9.50
2018-10-19T22:57:56.293Z,10.13
2018-10-19T23:00:30.871Z,9.57
2018-10-19T23:03:05.857Z,10.43
2018-10-19T23:05:40.384Z,10.40
2018-10-19T23:08:14.935Z,9.40
2018-10-19T23:10:49.688Z,10.63
2018-10-19T23:13:24.373Z,11.00
2018-10-19T23:15:58.937Z,8.80
2018-10-19T23:18:39.980Z,8.87
2018-10-19T23:21:14.732Z,10.13
2018-10-19T23:23:49.266Z,10.10
2018-10-19T23:26:24.105Z,8.70
2018-10-19T23:28:58.618Z,10.33
2018-10-19T23:31:33.338Z,9.40
2018-10-19T23:34:07.939Z,10.10
2018-10-19T23:36:42.423Z,10.63
2018-10-19T23:39:16.890Z,10.30
2018-10-19T23:41:51.530Z,8.77
2018-10-19T23:44:26.158Z,9.23
2018-10-19T23:47:00.877Z,9.50
2018-10-19T23:49:35.566Z,9.80
2018-10-19T23:52:10.062Z,11.60
2018-10-19T23:54:44.780Z,10.50
2018-10-19T23:57:19.257Z,10.37
2018-10-19T23:59:54.001Z,10.37
